North Hebron, New York
Current Conditions -  °F | °C
As of 3:53 PM on Saturday 20 Dec 2014 (Local Time) from KGFL Reporting Station
Clear Clear  
Wind Chill: 22°   Ceiling: Unl
Heat Index: 27°   Visibility: 10mi
Dew Point: 17°   Wind: 5mph
Humidity: 66%   Direction: 130°SE
Pressure: 30.29"   Gusts: NA
Location:  43.3389°N, 73.3194°W
Report Text: KGFL 202053Z AUTO 13004KT 10SM CLR M03/M08 A3029 RMK AO2 SLP267 T10281083 53002
Loading
Personal Weather Stations






























Interactive Weather Map New forecast layout! Learn more

10-Day Weather Forecast

Advertisements
Track Severe Weather on mobile